createdAt,value
2023-01-04T00:00:35.603Z,4.13
2023-01-04T00:01:57.003Z,4.32
2023-01-04T00:03:18.118Z,4.15
2023-01-04T00:04:39.580Z,4.40
2023-01-04T00:06:02.458Z,4.55
2023-01-04T00:07:23.479Z,4.57
2023-01-04T00:08:45.055Z,4.28
2023-01-04T00:10:07.312Z,4.26
2023-01-04T00:11:28.417Z,3.87
2023-01-04T00:12:49.795Z,4.14
2023-01-04T00:14:13.194Z,4.39
2023-01-04T00:15:34.352Z,4.35
2023-01-04T00:16:55.826Z,4.29
2023-01-04T00:18:17.231Z,4.25
2023-01-04T00:19:38.525Z,4.46
2023-01-04T00:22:19.639Z,4.42
2023-01-04T00:23:42.155Z,4.09
2023-01-04T00:25:04.096Z,4.22
2023-01-04T00:27:43.862Z,4.51
2023-01-04T00:29:06.638Z,3.70
2023-01-04T00:30:27.875Z,4.56
2023-01-04T00:31:49.205Z,4.36
2023-01-04T00:33:10.507Z,4.45
2023-01-04T00:34:32.221Z,4.41
2023-01-04T00:35:53.594Z,4.38
2023-01-04T00:37:14.601Z,4.49
2023-01-04T00:38:35.802Z,4.30
2023-01-04T00:39:57.469Z,4.69
2023-01-04T00:41:49.197Z,4.24
2023-01-04T00:42:41.882Z,3.74
2023-01-04T00:44:04.026Z,4.36
2023-01-04T00:45:25.363Z,4.66
2023-01-04T00:46:47.256Z,4.37
2023-01-04T00:48:08.820Z,4.42
2023-01-04T00:49:30.433Z,4.48
2023-01-04T00:50:52.192Z,4.34
2023-01-04T00:52:13.692Z,4.36
2023-01-04T00:53:35.255Z,4.54
2023-01-04T00:54:56.272Z,4.76
2023-01-04T00:56:18.164Z,4.50
2023-01-04T00:57:39.364Z,6.47
2023-01-04T00:59:01.399Z,9.31
2023-01-04T01:00:22.938Z,7.53
2023-01-04T01:01:44.726Z,5.34
2023-01-04T01:03:06.510Z,5.62
2023-01-04T01:04:28.325Z,4.87
2023-01-04T01:05:49.539Z,4.92
2023-01-04T01:07:11.085Z,4.99
2023-01-04T01:08:32.450Z,4.36
2023-01-04T01:09:53.727Z,4.87
2023-01-04T01:11:15.321Z,4.67
2023-01-04T01:12:36.718Z,4.88
2023-01-04T01:13:58.417Z,4.67
2023-01-04T01:15:19.767Z,4.78
2023-01-04T01:16:58.419Z,4.48
2023-01-04T01:18:04.346Z,4.43
2023-01-04T01:19:26.827Z,4.59
2023-01-04T01:22:11.311Z,4.69
2023-01-04T01:23:32.900Z,4.77
2023-01-04T01:24:54.593Z,4.94
2023-01-04T01:26:17.783Z,4.93
2023-01-04T01:27:39.512Z,4.79
2023-01-04T01:29:01.190Z,4.58
2023-01-04T01:30:23.153Z,4.86
2023-01-04T01:31:44.978Z,4.70
2023-01-04T01:33:07.327Z,4.83
2023-01-04T01:34:28.974Z,5.26
2023-01-04T01:35:50.222Z,5.00
2023-01-04T01:37:11.781Z,4.99
2023-01-04T01:38:37.476Z,5.03
2023-01-04T01:39:58.762Z,5.38
2023-01-04T01:41:32.475Z,5.14
2023-01-04T01:42:53.789Z,5.17
2023-01-04T01:44:44.746Z,4.68
2023-01-04T01:46:06.299Z,4.71
2023-01-04T01:48:57.751Z,9.32
2023-01-04T01:51:43.666Z,6.26
2023-01-04T01:53:05.595Z,5.43
2023-01-04T01:54:31.809Z,4.69
2023-01-04T01:55:54.199Z,4.88
2023-01-04T01:57:20.595Z,4.81
2023-01-04T01:58:43.837Z,4.78
2023-01-04T02:00:08.103Z,4.97
2023-01-04T02:01:29.649Z,4.66
2023-01-04T02:02:54.951Z,4.81
2023-01-04T02:04:16.548Z,4.67
2023-01-04T02:05:37.926Z,4.76
2023-01-04T02:06:59.599Z,5.01
2023-01-04T02:08:21.917Z,4.73
2023-01-04T02:09:43.888Z,4.54
2023-01-04T02:11:05.355Z,5.58
2023-01-04T02:12:26.327Z,5.34
2023-01-04T02:13:47.913Z,5.47
2023-01-04T02:15:09.620Z,5.14
2023-01-04T02:16:49.592Z,3.78
2023-01-04T02:18:12.536Z,4.71
2023-01-04T02:19:43.040Z,4.94
2023-01-04T02:22:54.087Z,4.39
2023-01-04T02:26:04.585Z,4.66
2023-01-04T02:27:55.648Z,4.50
2023-01-04T02:29:31.908Z,5.23
2023-01-04T02:31:09.528Z,5.79
2023-01-04T02:32:55.760Z,5.09
2023-01-04T02:34:41.827Z,4.73
2023-01-04T02:36:13.339Z,4.54
2023-01-04T02:37:57.398Z,4.90
2023-01-04T02:39:31.406Z,4.37
2023-01-04T02:41:11.263Z,4.72
2023-01-04T02:42:51.156Z,4.50
2023-01-04T02:44:17.915Z,4.87
2023-01-04T02:47:01.939Z,4.36
2023-01-04T02:48:24.906Z,4.68
2023-01-04T02:49:46.319Z,4.58
2023-01-04T02:52:45.681Z,3.64
2023-01-04T02:55:11.971Z,4.84
2023-01-04T02:57:05.827Z,4.72
2023-01-04T02:58:32.818Z,4.77
2023-01-04T03:00:22.091Z,4.56
2023-01-04T03:01:47.369Z,4.83
2023-01-04T03:05:00.015Z,5.16
2023-01-04T03:06:24.943Z,4.91
2023-01-04T03:07:55.025Z,4.83
2023-01-04T03:09:21.530Z,4.61
2023-01-04T03:12:14.993Z,4.99
2023-01-04T03:14:56.326Z,3.57
2023-01-04T03:16:20.125Z,5.17
2023-01-04T03:17:50.335Z,4.84
2023-01-04T03:19:11.278Z,5.30
2023-01-04T03:20:32.364Z,5.54
2023-01-04T03:21:53.620Z,6.32
2023-01-04T03:23:16.110Z,7.09
2023-01-04T03:24:37.036Z,6.44
2023-01-04T03:27:26.526Z,6.50
2023-01-04T03:28:47.938Z,5.51
2023-01-04T03:30:10.514Z,6.04
2023-01-04T03:31:42.363Z,5.26
2023-01-04T03:33:05.509Z,5.14
2023-01-04T03:34:26.991Z,4.88
2023-01-04T03:37:11.029Z,5.28
2023-01-04T03:40:17.048Z,4.88
2023-01-04T03:42:59.986Z,5.02
2023-01-04T03:44:41.284Z,4.49
2023-01-04T03:46:11.959Z,4.76
2023-01-04T03:47:42.843Z,4.56
2023-01-04T03:49:16.742Z,4.95
2023-01-04T03:50:40.945Z,4.55
2023-01-04T03:52:03.139Z,4.89
2023-01-04T03:53:24.185Z,4.92
2023-01-04T03:54:46.794Z,4.62
2023-01-04T03:56:08.896Z,4.99
2023-01-04T03:57:30.226Z,4.87
2023-01-04T03:58:51.722Z,5.14
2023-01-04T04:00:16.379Z,4.77
2023-01-04T04:01:37.757Z,4.81
2023-01-04T04:02:58.997Z,4.83
2023-01-04T04:04:19.989Z,4.95
2023-01-04T04:05:42.023Z,4.77
2023-01-04T04:07:03.145Z,5.13
2023-01-04T04:08:24.441Z,4.63
2023-01-04T04:09:45.651Z,5.34
2023-01-04T04:11:07.222Z,4.70
2023-01-04T04:12:28.687Z,4.60
2023-01-04T04:13:49.928Z,4.58
2023-01-04T04:15:11.162Z,5.10
2023-01-04T04:16:32.252Z,5.04
2023-01-04T04:17:53.396Z,5.63
2023-01-04T04:19:14.426Z,5.41
2023-01-04T04:20:35.422Z,4.78
2023-01-04T04:21:56.615Z,4.50
2023-01-04T04:23:18.038Z,4.95
2023-01-04T04:24:39.147Z,4.73
2023-01-04T04:26:00.469Z,4.53
2023-01-04T04:27:21.552Z,4.75
2023-01-04T04:28:42.999Z,4.77
2023-01-04T04:30:05.708Z,4.59
2023-01-04T04:31:27.144Z,4.61
2023-01-04T04:32:48.367Z,5.46
2023-01-04T04:34:09.994Z,4.67
2023-01-04T04:35:31.286Z,4.53
2023-01-04T04:36:53.058Z,4.85
2023-01-04T04:38:14.740Z,5.07
2023-01-04T04:39:35.704Z,5.04
2023-01-04T04:40:57.056Z,4.94
2023-01-04T04:42:18.341Z,5.33
2023-01-04T04:43:39.589Z,5.09
2023-01-04T04:45:00.832Z,5.11
2023-01-04T04:47:45.350Z,4.82
2023-01-04T04:49:06.917Z,5.19
2023-01-04T04:50:28.910Z,5.40
2023-01-04T04:51:50.263Z,4.99
2023-01-04T04:53:11.638Z,5.03
2023-01-04T04:54:32.658Z,5.30
2023-01-04T04:55:53.815Z,4.92
2023-01-04T04:57:15.451Z,5.49
2023-01-04T04:58:36.870Z,5.06
2023-01-04T04:59:58.485Z,5.08
2023-01-04T05:01:19.921Z,5.03
2023-01-04T05:02:41.767Z,5.14
2023-01-04T05:04:04.265Z,5.06
2023-01-04T05:05:25.645Z,5.26
2023-01-04T05:06:47.644Z,5.36
2023-01-04T05:08:08.722Z,5.21
2023-01-04T05:09:30.396Z,5.27
2023-01-04T05:10:52.353Z,4.82
2023-01-04T05:12:13.462Z,4.87
2023-01-04T05:13:35.251Z,5.28
2023-01-04T05:14:56.740Z,5.36
2023-01-04T05:16:18.894Z,5.86
2023-01-04T05:17:40.342Z,5.21
2023-01-04T05:19:01.447Z,4.77
2023-01-04T05:20:24.962Z,4.62
2023-01-04T05:21:46.338Z,4.92
2023-01-04T05:23:08.200Z,4.68
2023-01-04T05:24:29.762Z,4.54
2023-01-04T05:25:52.656Z,4.40
2023-01-04T05:27:14.032Z,4.47
2023-01-04T05:28:35.645Z,6.25
2023-01-04T05:29:57.010Z,5.04
2023-01-04T05:31:18.708Z,4.63
2023-01-04T05:32:40.397Z,4.83
2023-01-04T05:34:01.458Z,4.92
2023-01-04T05:35:22.728Z,4.91
2023-01-04T05:36:44.164Z,4.65
2023-01-04T05:38:05.318Z,5.32
2023-01-04T05:39:27.170Z,4.84
2023-01-04T05:40:49.264Z,4.89
2023-01-04T05:42:10.649Z,5.33
2023-01-04T05:43:31.761Z,5.51
2023-01-04T05:44:53.899Z,5.01
2023-01-04T05:46:17.078Z,5.09
2023-01-04T05:47:38.297Z,5.11
2023-01-04T05:48:59.741Z,4.69
2023-01-04T05:50:22.201Z,4.56
2023-01-04T05:51:43.285Z,4.96
2023-01-04T05:53:05.410Z,4.77
2023-01-04T05:54:26.526Z,4.65
2023-01-04T05:55:47.746Z,5.08
2023-01-04T05:57:09.258Z,5.11
2023-01-04T05:58:30.366Z,5.21
2023-01-04T05:59:51.888Z,5.68
2023-01-04T06:01:13.111Z,5.41
2023-01-04T06:02:34.235Z,5.52
2023-01-04T06:03:57.577Z,5.21
2023-01-04T06:05:18.846Z,5.50
2023-01-04T06:06:40.402Z,5.51
2023-01-04T06:08:01.762Z,5.14
2023-01-04T06:09:23.424Z,5.20
2023-01-04T06:10:44.896Z,5.11
2023-01-04T06:12:06.336Z,5.19
2023-01-04T06:13:27.419Z,5.36
2023-01-04T06:14:48.535Z,5.66
2023-01-04T06:16:11.536Z,5.11
2023-01-04T06:17:33.024Z,5.52
2023-01-04T06:18:54.355Z,4.77
2023-01-04T06:20:17.733Z,5.36
2023-01-04T06:21:38.977Z,5.10
2023-01-04T06:23:00.114Z,5.16
2023-01-04T06:24:21.464Z,5.36
2023-01-04T06:25:42.988Z,5.45
2023-01-04T06:27:04.783Z,5.31
2023-01-04T06:28:26.148Z,5.08
2023-01-04T06:29:47.704Z,5.05
2023-01-04T06:31:09.452Z,5.46
2023-01-04T06:32:30.903Z,5.32
2023-01-04T06:33:52.674Z,5.34
2023-01-04T06:35:14.112Z,5.67
2023-01-04T06:36:36.173Z,5.03
2023-01-04T06:37:57.361Z,4.96
2023-01-04T06:39:19.259Z,5.32
2023-01-04T06:40:41.181Z,4.77
2023-01-04T06:42:06.590Z,5.05
2023-01-04T06:43:26.582Z,5.99
2023-01-04T06:44:47.896Z,5.22
2023-01-04T06:46:09.861Z,4.63
2023-01-04T06:47:31.299Z,5.40
2023-01-04T06:48:52.811Z,5.57
2023-01-04T06:50:15.705Z,5.73
2023-01-04T06:51:37.110Z,5.54
2023-01-04T06:52:58.473Z,5.32
2023-01-04T06:54:20.033Z,5.92
2023-01-04T06:55:43.961Z,6.27
2023-01-04T06:57:04.883Z,5.47
2023-01-04T06:58:26.976Z,5.19
2023-01-04T06:59:48.182Z,5.59
2023-01-04T07:01:09.279Z,5.12
2023-01-04T07:02:30.852Z,5.04
2023-01-04T07:03:52.204Z,5.66
2023-01-04T07:05:13.462Z,5.88
2023-01-04T07:06:35.830Z,5.65
2023-01-04T07:09:12.589Z,5.27
2023-01-04T07:10:34.142Z,5.14
2023-01-04T07:11:55.312Z,5.56
2023-01-04T07:13:16.413Z,5.51
2023-01-04T07:14:37.527Z,5.53
2023-01-04T07:15:59.151Z,5.12
2023-01-04T07:17:26.442Z,5.34
2023-01-04T07:20:05.288Z,5.01
2023-01-04T07:21:26.589Z,5.55
2023-01-04T07:22:47.969Z,5.17
2023-01-04T07:24:09.185Z,5.49
2023-01-04T07:25:30.618Z,4.89
2023-01-04T07:26:52.331Z,5.09
2023-01-04T07:28:13.955Z,4.92
2023-01-04T07:29:35.323Z,4.91
2023-01-04T07:30:56.999Z,5.43
2023-01-04T07:32:18.251Z,5.18
2023-01-04T07:33:39.295Z,5.44
2023-01-04T07:35:01.615Z,4.96
2023-01-04T07:36:23.729Z,5.44
2023-01-04T07:37:44.772Z,5.18
2023-01-04T07:39:07.424Z,4.70
2023-01-04T07:40:28.976Z,7.33
2023-01-04T07:41:50.269Z,5.13
2023-01-04T07:43:13.850Z,4.62
2023-01-04T07:44:35.158Z,4.77
2023-01-04T07:45:56.591Z,4.23
2023-01-04T07:47:18.423Z,4.51
2023-01-04T07:48:40.084Z,5.10
2023-01-04T07:50:01.659Z,5.19
2023-01-04T07:51:23.004Z,5.17
2023-01-04T07:52:44.397Z,5.58
2023-01-04T07:54:05.776Z,5.69
2023-01-04T07:55:26.933Z,5.61
2023-01-04T07:56:48.724Z,5.78
2023-01-04T07:58:11.679Z,5.21
2023-01-04T07:59:33.152Z,4.73
2023-01-04T08:00:54.394Z,5.43
2023-01-04T08:02:15.745Z,6.28
2023-01-04T08:03:37.081Z,5.49
2023-01-04T08:04:58.364Z,5.59
2023-01-04T08:06:20.800Z,5.01
2023-01-04T08:07:42.072Z,5.18
2023-01-04T08:09:04.274Z,4.96
2023-01-04T08:10:25.995Z,3.88
2023-01-04T08:11:48.502Z,5.23
2023-01-04T08:13:09.905Z,5.94
2023-01-04T08:14:30.860Z,5.48
2023-01-04T08:15:52.838Z,5.04
2023-01-04T08:17:14.612Z,5.12
2023-01-04T08:18:39.450Z,5.52
2023-01-04T08:20:06.260Z,5.86
2023-01-04T08:21:28.877Z,5.74
2023-01-04T08:22:50.417Z,5.98
2023-01-04T08:25:26.104Z,5.64
2023-01-04T08:26:47.812Z,6.63
2023-01-04T08:28:09.013Z,6.44
2023-01-04T08:29:34.743Z,6.37
2023-01-04T08:30:54.953Z,5.94
2023-01-04T08:32:16.404Z,7.16
2023-01-04T08:33:38.004Z,8.37
2023-01-04T08:34:59.297Z,7.08
2023-01-04T08:36:27.991Z,5.93
2023-01-04T08:37:49.049Z,6.95
2023-01-04T08:39:10.501Z,7.08
2023-01-04T08:40:59.803Z,7.25
2023-01-04T08:43:18.135Z,6.24
2023-01-04T08:44:39.590Z,5.96
2023-01-04T08:46:02.724Z,5.67
2023-01-04T08:47:24.437Z,5.62
2023-01-04T08:48:46.131Z,5.84
2023-01-04T08:50:10.998Z,6.33
2023-01-04T08:51:31.118Z,6.43
2023-01-04T08:52:52.200Z,7.57
2023-01-04T08:54:13.676Z,6.76
2023-01-04T08:55:35.700Z,6.64
2023-01-04T08:56:58.059Z,6.17
2023-01-04T08:58:19.260Z,6.23
2023-01-04T08:59:40.226Z,7.14
2023-01-04T09:01:02.407Z,6.70
2023-01-04T09:02:25.358Z,6.43
2023-01-04T09:03:46.995Z,6.89
2023-01-04T09:05:09.615Z,6.60
2023-01-04T09:06:31.302Z,6.64
2023-01-04T09:07:52.657Z,7.64
2023-01-04T09:09:14.578Z,6.58
2023-01-04T09:10:37.121Z,6.44
2023-01-04T09:11:58.369Z,6.22
2023-01-04T09:13:19.580Z,5.42
2023-01-04T09:14:41.089Z,5.31
2023-01-04T09:16:03.494Z,5.38
2023-01-04T09:17:24.842Z,5.71
2023-01-04T09:20:09.287Z,5.89
2023-01-04T09:21:31.346Z,5.55
2023-01-04T09:22:52.630Z,5.21
2023-01-04T09:24:13.772Z,5.59
2023-01-04T09:25:40.293Z,5.18
2023-01-04T09:27:02.338Z,5.29
2023-01-04T09:28:23.953Z,5.76
2023-01-04T09:29:51.085Z,5.19
2023-01-04T09:31:14.326Z,5.17
2023-01-04T09:34:14.741Z,5.03
2023-01-04T09:35:20.003Z,5.03
2023-01-04T09:37:47.475Z,4.71
2023-01-04T09:39:13.259Z,4.98
2023-01-04T09:54:01.407Z,4.44
2023-01-04T09:55:37.295Z,4.35
2023-01-04T09:57:01.784Z,3.47
2023-01-04T09:58:34.128Z,3.52
2023-01-04T10:01:20.488Z,2.77
2023-01-04T10:02:52.484Z,3.68
2023-01-04T10:06:19.066Z,3.83
2023-01-04T10:07:40.498Z,3.83
2023-01-04T10:09:04.670Z,3.56
2023-01-04T10:10:45.991Z,3.56
2023-01-04T10:13:44.712Z,3.88
2023-01-04T10:15:32.859Z,4.83
2023-01-04T10:22:03.024Z,3.79
2023-01-04T10:24:03.457Z,3.63
2023-01-04T10:25:40.533Z,3.77
2023-01-04T10:28:47.952Z,3.71
2023-01-04T10:30:43.358Z,3.62
2023-01-04T10:32:20.944Z,4.25
2023-01-04T10:33:51.563Z,3.91
2023-01-04T10:35:22.316Z,3.63
2023-01-04T10:36:44.572Z,3.98
2023-01-04T10:38:28.089Z,4.85
2023-01-04T10:39:53.479Z,4.57
2023-01-04T10:41:21.209Z,4.15
2023-01-04T10:43:02.798Z,3.94
2023-01-04T10:44:49.887Z,4.30
2023-01-04T10:46:21.134Z,4.06
2023-01-04T10:47:55.026Z,4.44
2023-01-04T10:50:51.308Z,3.69
2023-01-04T10:52:17.837Z,4.08
2023-01-04T10:53:48.016Z,3.57
2023-01-04T10:55:20.535Z,3.85
2023-01-04T10:56:53.646Z,3.50
2023-01-04T10:58:19.201Z,3.86
2023-01-04T11:01:13.837Z,4.00
2023-01-04T11:02:42.210Z,3.66
2023-01-04T11:05:34.413Z,4.69
2023-01-04T11:07:14.541Z,4.87
2023-01-04T11:10:09.437Z,3.80
2023-01-04T11:23:17.888Z,2.67
2023-01-04T11:26:02.255Z,2.87
2023-01-04T11:27:27.178Z,3.27
2023-01-04T11:28:53.179Z,2.47
2023-01-04T11:31:36.330Z,2.51
2023-01-04T11:33:07.122Z,2.94
2023-01-04T11:34:48.304Z,2.58
2023-01-04T11:36:10.392Z,2.17
2023-01-04T11:38:50.442Z,2.28
2023-01-04T11:40:19.909Z,2.21
2023-01-04T11:42:02.913Z,1.91
2023-01-04T11:43:22.392Z,2.74
2023-01-04T11:46:18.510Z,2.72
2023-01-04T11:47:48.931Z,2.06
2023-01-04T11:49:18.565Z,2.39
2023-01-04T11:51:57.290Z,2.90
2023-01-04T11:53:30.449Z,2.38
2023-01-04T11:54:51.877Z,2.62
2023-01-04T11:56:21.728Z,3.83
2023-01-04T11:57:45.122Z,4.29
2023-01-04T11:59:22.623Z,2.86
2023-01-04T12:00:54.471Z,2.54
2023-01-04T12:02:42.644Z,2.71
2023-01-04T12:03:43.294Z,2.48
2023-01-04T12:05:24.526Z,3.87
2023-01-04T12:06:47.469Z,2.63
2023-01-04T12:09:25.606Z,2.99
2023-01-04T12:10:50.812Z,3.49
2023-01-04T12:12:15.996Z,2.99
2023-01-04T12:13:35.934Z,2.61
2023-01-04T12:15:00.129Z,2.79
2023-01-04T12:16:43.774Z,2.48
2023-01-04T12:18:09.360Z,3.11
2023-01-04T12:19:30.508Z,3.33
2023-01-04T12:20:53.158Z,3.77
2023-01-04T12:22:38.061Z,2.51
2023-01-04T12:24:01.614Z,2.06
2023-01-04T12:25:39.611Z,2.58
2023-01-04T12:27:00.955Z,2.72
2023-01-04T12:28:33.317Z,2.50
2023-01-04T12:30:00.887Z,2.62
2023-01-04T12:31:26.638Z,2.97
2023-01-04T12:32:48.093Z,2.74
2023-01-04T12:34:26.753Z,2.97
2023-01-04T12:36:02.915Z,3.09
2023-01-04T12:37:43.255Z,2.66
2023-01-04T12:39:14.343Z,2.45
2023-01-04T12:40:48.759Z,2.39
2023-01-04T12:42:17.512Z,2.30
2023-01-04T12:43:46.586Z,2.42
2023-01-04T12:45:06.955Z,2.67
2023-01-04T12:46:32.384Z,3.06
2023-01-04T12:47:53.531Z,3.45
2023-01-04T12:49:30.420Z,3.23
2023-01-04T12:52:43.012Z,3.42
2023-01-04T12:53:58.375Z,4.14
2023-01-04T12:55:29.235Z,4.18
2023-01-04T12:57:22.157Z,3.47
2023-01-04T13:00:23.696Z,3.34
2023-01-04T13:01:49.072Z,3.37
2023-01-04T13:03:18.300Z,4.37
2023-01-04T13:04:42.236Z,3.57
2023-01-04T13:06:05.328Z,4.91
2023-01-04T13:08:50.891Z,2.67
2023-01-04T13:10:35.659Z,4.29
2023-01-04T13:12:27.084Z,5.92
2023-01-04T13:15:30.399Z,3.94
2023-01-04T13:18:58.483Z,3.10
2023-01-04T13:20:24.671Z,3.54
2023-01-04T13:21:47.834Z,3.69
2023-01-04T13:23:17.502Z,4.09
2023-01-04T13:24:51.849Z,4.07
2023-01-04T13:26:41.288Z,4.66
2023-01-04T13:28:07.083Z,4.45
2023-01-04T13:29:34.903Z,3.81
2023-01-04T13:30:59.740Z,4.01
2023-01-04T13:33:15.105Z,4.35
2023-01-04T13:34:05.824Z,4.21
2023-01-04T13:35:35.114Z,4.77
2023-01-04T13:38:57.522Z,4.21
2023-01-04T13:42:09.109Z,4.26
2023-01-04T13:45:19.225Z,5.11
2023-01-04T13:46:31.563Z,4.74
2023-01-04T13:48:01.281Z,4.79
2023-01-04T13:51:01.939Z,4.66
2023-01-04T14:05:22.020Z,3.69
2023-01-04T14:06:46.718Z,4.72
2023-01-04T14:08:10.984Z,4.71
2023-01-04T14:09:40.390Z,5.65
2023-01-04T14:11:02.456Z,6.14
2023-01-04T14:12:24.247Z,5.40
2023-01-04T14:13:46.753Z,5.56
2023-01-04T14:15:17.633Z,5.53
2023-01-04T14:16:39.010Z,5.38
2023-01-04T14:18:00.527Z,5.34
2023-01-04T14:21:18.267Z,4.28
2023-01-04T14:22:44.192Z,6.53
2023-01-04T14:24:09.483Z,6.48
2023-01-04T14:25:34.714Z,7.22
2023-01-04T14:26:56.535Z,7.71
2023-01-04T14:28:26.758Z,5.97
2023-01-04T14:29:47.923Z,6.21
2023-01-04T14:31:16.188Z,6.63
2023-01-04T14:32:40.096Z,7.68
2023-01-04T14:34:04.994Z,6.28
2023-01-04T14:35:27.050Z,6.66
2023-01-04T14:36:50.816Z,8.14
2023-01-04T14:38:16.323Z,7.32
2023-01-04T14:39:38.157Z,6.48
2023-01-04T14:41:20.124Z,6.31
2023-01-04T14:42:42.653Z,7.52
2023-01-04T14:44:09.965Z,7.16
2023-01-04T14:46:44.955Z,7.62
2023-01-04T14:48:08.720Z,9.06
2023-01-04T14:49:29.892Z,7.79
2023-01-04T14:50:51.551Z,8.67
2023-01-04T14:52:20.669Z,8.35
2023-01-04T14:53:42.550Z,9.02
2023-01-04T14:55:04.673Z,9.03
2023-01-04T14:56:26.323Z,9.15
2023-01-04T14:57:49.091Z,9.13
2023-01-04T14:59:10.560Z,9.89
2023-01-04T15:00:32.220Z,9.17
2023-01-04T15:04:27.940Z,8.96
2023-01-04T15:05:49.313Z,8.80
2023-01-04T15:07:33.033Z,8.72
2023-01-04T15:08:54.631Z,9.28
2023-01-04T15:10:22.814Z,8.95
2023-01-04T15:11:44.313Z,8.83
2023-01-04T15:13:06.005Z,8.57
2023-01-04T15:14:28.319Z,8.81
2023-01-04T15:15:49.871Z,6.96
2023-01-04T15:17:11.376Z,8.67
2023-01-04T15:18:33.114Z,8.47
2023-01-04T15:19:54.429Z,8.68
2023-01-04T15:21:16.194Z,8.51
2023-01-04T15:22:38.544Z,9.67
2023-01-04T15:23:59.591Z,9.69
2023-01-04T15:25:23.822Z,11.46
2023-01-04T15:26:47.702Z,12.17
2023-01-04T15:28:08.847Z,14.13
2023-01-04T15:29:30.548Z,15.37
2023-01-04T15:30:54.736Z,16.61
2023-01-04T15:32:16.526Z,18.74
2023-01-04T15:33:38.026Z,18.78
2023-01-04T15:35:01.282Z,17.00
2023-01-04T15:36:24.183Z,17.66
2023-01-04T15:37:45.847Z,16.06
2023-01-04T15:39:07.141Z,19.36
2023-01-04T15:40:28.632Z,17.58
2023-01-04T15:41:49.943Z,16.67
2023-01-04T15:43:11.921Z,19.19
2023-01-04T15:44:33.287Z,16.28
2023-01-04T15:45:55.213Z,18.96
2023-01-04T15:47:16.846Z,22.01
2023-01-04T15:48:38.161Z,17.59
2023-01-04T15:49:59.777Z,21.93
2023-01-04T15:51:21.098Z,18.69
2023-01-04T15:52:42.137Z,16.97
2023-01-04T15:54:04.019Z,16.71
2023-01-04T15:55:27.568Z,18.88
2023-01-04T15:56:51.738Z,19.92
2023-01-04T15:58:13.000Z,18.29
2023-01-04T15:59:34.539Z,16.21
2023-01-04T16:01:01.211Z,18.01
2023-01-04T16:02:19.019Z,21.54
2023-01-04T16:03:40.300Z,23.24
2023-01-04T16:05:02.575Z,19.82
2023-01-04T16:06:24.544Z,17.33
2023-01-04T16:07:48.672Z,19.65
2023-01-04T16:09:09.923Z,19.96
2023-01-04T16:10:31.779Z,19.07
2023-01-04T16:11:53.079Z,16.48
2023-01-04T16:13:14.985Z,16.16
2023-01-04T16:14:37.508Z,13.04
2023-01-04T16:16:03.772Z,14.98
2023-01-04T16:17:25.265Z,14.60
2023-01-04T16:18:48.026Z,14.76
2023-01-04T16:20:12.377Z,13.13
2023-01-04T16:21:33.354Z,13.71
2023-01-04T16:22:54.356Z,13.09
2023-01-04T16:24:44.794Z,13.53
2023-01-04T16:25:38.743Z,14.34
2023-01-04T16:27:00.363Z,13.02
2023-01-04T16:28:23.508Z,15.12
2023-01-04T16:29:45.715Z,15.67
2023-01-04T16:31:07.457Z,17.01
2023-01-04T16:32:29.082Z,16.85
2023-01-04T16:33:53.084Z,15.94
2023-01-04T16:35:14.340Z,16.46
2023-01-04T16:36:36.079Z,13.07
2023-01-04T16:37:59.886Z,13.44
2023-01-04T16:39:28.413Z,13.36
2023-01-04T16:40:45.331Z,12.42
2023-01-04T16:42:10.711Z,14.07
2023-01-04T16:43:30.123Z,11.81
2023-01-04T16:44:51.287Z,11.86
2023-01-04T16:46:32.410Z,12.59
2023-01-04T16:47:54.023Z,11.88
2023-01-04T16:49:16.014Z,12.06
2023-01-04T16:50:38.940Z,17.56
2023-01-04T16:52:00.203Z,12.77
2023-01-04T16:53:21.731Z,14.52
2023-01-04T16:54:43.440Z,13.89
2023-01-04T16:56:09.620Z,20.27
2023-01-04T16:57:30.930Z,14.03
2023-01-04T16:58:52.844Z,12.29
2023-01-04T17:00:15.607Z,12.65
2023-01-04T17:01:42.302Z,12.04
2023-01-04T17:03:00.237Z,18.31
2023-01-04T17:04:21.695Z,12.51
2023-01-04T17:05:43.338Z,11.72
2023-01-04T17:07:05.265Z,12.46
2023-01-04T17:08:27.233Z,11.69
2023-01-04T17:09:48.943Z,11.63
2023-01-04T17:13:45.747Z,12.72
2023-01-04T17:16:36.149Z,11.99
2023-01-04T17:17:57.461Z,12.81
2023-01-04T17:19:19.330Z,11.77
2023-01-04T17:20:40.850Z,13.17
2023-01-04T17:22:02.078Z,11.96
2023-01-04T17:23:23.714Z,11.96
2023-01-04T17:24:44.914Z,12.30
2023-01-04T17:27:24.996Z,12.02
2023-01-04T17:28:46.454Z,12.02
2023-01-04T17:30:09.567Z,11.62
2023-01-04T17:32:57.559Z,13.23
2023-01-04T17:34:22.988Z,13.58
2023-01-04T17:35:43.413Z,13.37
2023-01-04T17:37:05.045Z,13.11
2023-01-04T17:38:26.467Z,12.96
2023-01-04T17:39:48.051Z,15.23
2023-01-04T17:41:11.016Z,17.80
2023-01-04T17:42:32.597Z,13.11
2023-01-04T17:45:09.487Z,12.78
2023-01-04T17:46:34.903Z,12.94
2023-01-04T17:47:56.172Z,12.88
2023-01-04T17:49:22.585Z,12.48
2023-01-04T17:52:01.511Z,11.71
2023-01-04T17:53:23.291Z,13.09
2023-01-04T17:54:44.826Z,12.38
2023-01-04T17:56:17.643Z,12.82
2023-01-04T17:57:39.793Z,12.44
2023-01-04T17:59:01.607Z,14.31
2023-01-04T18:00:23.570Z,10.53
2023-01-04T18:01:46.038Z,13.14
2023-01-04T18:03:07.523Z,12.29
2023-01-04T18:04:28.759Z,12.68
2023-01-04T18:06:07.124Z,12.51
2023-01-04T18:08:32.561Z,12.39
2023-01-04T18:09:54.192Z,13.52
2023-01-04T18:11:15.691Z,13.28
2023-01-04T18:12:37.234Z,14.04
2023-01-04T18:13:58.252Z,14.34
2023-01-04T18:15:19.145Z,12.56
2023-01-04T18:16:40.438Z,11.47
2023-01-04T18:18:01.985Z,10.75
2023-01-04T18:19:27.984Z,10.78
2023-01-04T18:20:50.203Z,10.28
2023-01-04T18:22:11.728Z,10.06
2023-01-04T18:23:33.129Z,9.74
2023-01-04T18:24:54.427Z,10.60
2023-01-04T18:26:16.067Z,10.19
2023-01-04T18:27:37.349Z,11.06
2023-01-04T18:28:58.740Z,9.88
2023-01-04T18:30:19.886Z,10.47
2023-01-04T18:31:40.920Z,11.11
2023-01-04T18:33:02.721Z,9.22
2023-01-04T18:34:25.442Z,8.82
2023-01-04T18:35:46.878Z,9.12
2023-01-04T18:37:08.482Z,11.01
2023-01-04T18:38:29.840Z,16.17
2023-01-04T18:39:51.058Z,18.34
2023-01-04T18:41:12.542Z,11.43
2023-01-04T18:42:33.741Z,9.33
2023-01-04T18:44:13.200Z,9.39
2023-01-04T18:45:18.771Z,9.38
2023-01-04T18:46:40.336Z,9.62
2023-01-04T18:48:03.864Z,11.53
2023-01-04T18:49:25.081Z,9.16
2023-01-04T18:50:47.494Z,9.80
2023-01-04T18:52:08.952Z,8.23
2023-01-04T18:53:30.462Z,9.69
2023-01-04T18:54:51.780Z,9.33
2023-01-04T18:56:13.642Z,8.87
2023-01-04T18:57:36.495Z,8.16
2023-01-04T18:58:57.660Z,8.63
2023-01-04T19:00:20.179Z,8.28
2023-01-04T19:01:41.803Z,8.30
2023-01-04T19:03:03.669Z,9.17
2023-01-04T19:04:25.582Z,8.61
2023-01-04T19:05:46.983Z,9.70
2023-01-04T19:07:09.135Z,8.14
2023-01-04T19:08:30.364Z,7.83
2023-01-04T19:09:52.163Z,8.37
2023-01-04T19:11:13.575Z,8.68
2023-01-04T19:12:34.978Z,8.25
2023-01-04T19:13:56.529Z,7.94
2023-01-04T19:15:17.760Z,8.79
2023-01-04T19:16:40.836Z,8.17
2023-01-04T19:18:02.093Z,7.91
2023-01-04T19:19:23.641Z,8.11
2023-01-04T19:20:45.149Z,8.66
2023-01-04T19:22:06.867Z,8.38
2023-01-04T19:23:28.069Z,8.29
2023-01-04T19:24:49.757Z,8.83
2023-01-04T19:27:34.379Z,8.53
2023-01-04T19:28:56.030Z,7.56
2023-01-04T19:30:19.817Z,6.95
2023-01-04T19:31:40.901Z,7.74
2023-01-04T19:33:02.460Z,7.69
2023-01-04T19:34:24.464Z,7.64
2023-01-04T19:35:46.069Z,7.73
2023-01-04T19:37:06.991Z,7.74
2023-01-04T19:38:28.503Z,8.29
2023-01-04T19:39:49.630Z,7.26
2023-01-04T19:41:14.443Z,8.43
2023-01-04T19:42:35.455Z,7.74
2023-01-04T19:43:57.044Z,7.80
2023-01-04T19:45:18.699Z,7.80
2023-01-04T19:46:40.210Z,7.58
2023-01-04T19:48:01.606Z,8.37
2023-01-04T19:49:22.810Z,8.43
2023-01-04T19:50:44.711Z,7.07
2023-01-04T19:52:05.747Z,8.44
2023-01-04T19:53:27.108Z,9.41
2023-01-04T19:54:48.098Z,8.49
2023-01-04T19:56:10.855Z,8.21
2023-01-04T19:57:32.243Z,8.62
2023-01-04T19:58:53.901Z,8.18
2023-01-04T20:00:17.239Z,7.89
2023-01-04T20:03:00.719Z,8.22
2023-01-04T20:04:23.354Z,7.68
2023-01-04T20:05:44.929Z,8.19
2023-01-04T20:07:06.425Z,7.75
2023-01-04T20:08:27.737Z,7.73
2023-01-04T20:09:49.180Z,7.32
2023-01-04T20:11:10.803Z,7.77
2023-01-04T20:12:32.183Z,7.99
2023-01-04T20:13:53.667Z,7.32
2023-01-04T20:15:17.045Z,7.36
2023-01-04T20:16:38.378Z,7.08
2023-01-04T20:17:59.720Z,7.56
2023-01-04T20:19:21.231Z,7.30
2023-01-04T20:20:43.232Z,7.29
2023-01-04T20:22:04.357Z,5.56
2023-01-04T20:23:25.931Z,7.23
2023-01-04T20:24:46.915Z,7.42
2023-01-04T20:26:11.801Z,8.14
2023-01-04T20:27:32.991Z,7.91
2023-01-04T20:28:54.001Z,7.85
2023-01-04T20:30:15.709Z,8.14
2023-01-04T20:31:40.878Z,8.03
2023-01-04T20:34:21.300Z,7.15
2023-01-04T20:35:43.128Z,7.58
2023-01-04T20:37:04.352Z,7.62
2023-01-04T20:38:25.681Z,8.07
2023-01-04T20:39:46.915Z,8.01
2023-01-04T20:41:09.517Z,8.19
2023-01-04T20:42:30.824Z,7.77
2023-01-04T20:43:51.956Z,7.63
2023-01-04T20:45:13.057Z,8.23